sensor_id;sensor_type;location;lat;lon;timestamp;temperature;humidity
35111;DHT22;21290;50.158;8.658;2023-04-15T00:00:57;5.90;99.90
35111;DHT22;21290;50.158;8.658;2023-04-15T00:03:24;5.90;99.90
35111;DHT22;21290;50.158;8.658;2023-04-15T00:05:51;5.90;99.90
35111;DHT22;21290;50.158;8.658;2023-04-15T00:08:18;5.90;99.90
35111;DHT22;21290;50.158;8.658;2023-04-15T00:10:45;5.80;99.90
35111;DHT22;21290;50.158;8.658;2023-04-15T00:13:12;5.80;99.90
35111;DHT22;21290;50.158;8.658;2023-04-15T00:15:38;5.80;99.90
35111;DHT22;21290;50.158;8.658;2023-04-15T00:18:05;5.80;99.90
35111;DHT22;21290;50.158;8.658;2023-04-15T00:20:34;5.80;99.90
35111;DHT22;21290;50.158;8.658;2023-04-15T00:23:01;5.80;99.90
35111;DHT22;21290;50.158;8.658;2023-04-15T00:25:29;5.70;99.90
35111;DHT22;21290;50.158;8.658;2023-04-15T00:27:56;5.80;99.90
35111;DHT22;21290;50.158;8.658;2023-04-15T00:30:22;5.80;99.90
35111;DHT22;21290;50.158;8.658;2023-04-15T00:32:49;5.80;99.90
35111;DHT22;21290;50.158;8.658;2023-04-15T00:35:16;5.80;99.90
35111;DHT22;21290;50.158;8.658;2023-04-15T00:37:42;5.80;99.90
35111;DHT22;21290;50.158;8.658;2023-04-15T00:40:12;5.80;99.90
35111;DHT22;21290;50.158;8.658;2023-04-15T00:42:39;5.70;99.90
35111;DHT22;21290;50.158;8.658;2023-04-15T00:45:06;5.80;99.90
35111;DHT22;21290;50.158;8.658;2023-04-15T00:47:34;5.80;99.90
35111;DHT22;21290;50.158;8.658;2023-04-15T00:50:02;5.70;99.90
35111;DHT22;21290;50.158;8.658;2023-04-15T00:52:29;5.70;99.90
35111;DHT22;21290;50.158;8.658;2023-04-15T00:54:56;5.70;99.90
35111;DHT22;21290;50.158;8.658;2023-04-15T00:57:23;5.70;99.90
35111;DHT22;21290;50.158;8.658;2023-04-15T00:59:50;5.60;99.90
35111;DHT22;21290;50.158;8.658;2023-04-15T01:02:18;5.60;99.90
35111;DHT22;21290;50.158;8.658;2023-04-15T01:04:45;5.60;99.90
35111;DHT22;21290;50.158;8.658;2023-04-15T01:07:12;5.50;99.90
35111;DHT22;21290;50.158;8.658;2023-04-15T01:09:39;5.50;99.90
35111;DHT22;21290;50.158;8.658;2023-04-15T01:12:06;5.50;99.90
35111;DHT22;21290;50.158;8.658;2023-04-15T01:14:34;5.40;99.90
35111;DHT22;21290;50.158;8.658;2023-04-15T01:17:01;5.40;99.90
35111;DHT22;21290;50.158;8.658;2023-04-15T01:19:28;5.40;99.90
35111;DHT22;21290;50.158;8.658;2023-04-15T01:21:55;5.40;99.90
35111;DHT22;21290;50.158;8.658;2023-04-15T01:24:23;5.30;99.90
35111;DHT22;21290;50.158;8.658;2023-04-15T01:26:51;5.30;99.90
35111;DHT22;21290;50.158;8.658;2023-04-15T01:29:18;5.30;99.90
35111;DHT22;21290;50.158;8.658;2023-04-15T01:31:51;5.20;99.90
35111;DHT22;21290;50.158;8.658;2023-04-15T01:34:19;5.20;99.90
35111;DHT22;21290;50.158;8.658;2023-04-15T01:36:46;5.20;99.90
35111;DHT22;21290;50.158;8.658;2023-04-15T01:39:13;5.20;99.90
35111;DHT22;21290;50.158;8.658;2023-04-15T01:41:40;5.20;99.90
35111;DHT22;21290;50.158;8.658;2023-04-15T01:44:07;5.20;99.90
35111;DHT22;21290;50.158;8.658;2023-04-15T01:46:34;5.20;99.90
35111;DHT22;21290;50.158;8.658;2023-04-15T01:49:01;5.20;99.90
35111;DHT22;21290;50.158;8.658;2023-04-15T01:51:28;5.20;99.90
35111;DHT22;21290;50.158;8.658;2023-04-15T01:53:55;5.20;99.90
35111;DHT22;21290;50.158;8.658;2023-04-15T01:56:24;5.20;99.90
35111;DHT22;21290;50.158;8.658;2023-04-15T01:58:51;5.20;99.90
35111;DHT22;21290;50.158;8.658;2023-04-15T02:01:17;5.20;99.90
35111;DHT22;21290;50.158;8.658;2023-04-15T02:03:47;5.20;99.90
35111;DHT22;21290;50.158;8.658;2023-04-15T02:06:14;5.30;99.90
35111;DHT22;21290;50.158;8.658;2023-04-15T02:08:41;5.30;99.90
35111;DHT22;21290;50.158;8.658;2023-04-15T02:11:08;5.30;99.90
35111;DHT22;21290;50.158;8.658;2023-04-15T02:13:34;5.20;99.90
35111;DHT22;21290;50.158;8.658;2023-04-15T02:16:02;5.30;99.90
35111;DHT22;21290;50.158;8.658;2023-04-15T02:18:29;5.20;99.90
35111;DHT22;21290;50.158;8.658;2023-04-15T02:20:56;5.30;99.90
35111;DHT22;21290;50.158;8.658;2023-04-15T02:23:24;5.30;99.90
35111;DHT22;21290;50.158;8.658;2023-04-15T02:25:50;5.20;99.90
35111;DHT22;21290;50.158;8.658;2023-04-15T02:28:20;5.20;99.90
35111;DHT22;21290;50.158;8.658;2023-04-15T02:30:48;5.20;99.90
35111;DHT22;21290;50.158;8.658;2023-04-15T02:33:18;5.20;99.90
35111;DHT22;21290;50.158;8.658;2023-04-15T02:35:45;5.10;99.90
35111;DHT22;21290;50.158;8.658;2023-04-15T02:38:11;5.10;99.90
35111;DHT22;21290;50.158;8.658;2023-04-15T02:40:39;5.10;99.90
35111;DHT22;21290;50.158;8.658;2023-04-15T02:43:06;5.10;99.90
35111;DHT22;21290;50.158;8.658;2023-04-15T02:45:32;5.00;99.90
35111;DHT22;21290;50.158;8.658;2023-04-15T02:47:59;5.00;99.90
35111;DHT22;21290;50.158;8.658;2023-04-15T02:50:31;4.90;99.90
35111;DHT22;21290;50.158;8.658;2023-04-15T02:52:57;4.90;99.90
35111;DHT22;21290;50.158;8.658;2023-04-15T02:55:26;4.90;99.90
35111;DHT22;21290;50.158;8.658;2023-04-15T02:57:53;4.80;99.90
35111;DHT22;21290;50.158;8.658;2023-04-15T03:00:19;4.90;99.90
35111;DHT22;21290;50.158;8.658;2023-04-15T03:02:46;4.80;99.90
35111;DHT22;21290;50.158;8.658;2023-04-15T03:05:15;4.80;99.90
35111;DHT22;21290;50.158;8.658;2023-04-15T03:07:42;4.80;99.90
35111;DHT22;21290;50.158;8.658;2023-04-15T03:10:09;4.70;99.90
35111;DHT22;21290;50.158;8.658;2023-04-15T03:12:36;4.70;99.90
35111;DHT22;21290;50.158;8.658;2023-04-15T03:15:03;4.70;99.90
35111;DHT22;21290;50.158;8.658;2023-04-15T03:17:29;4.70;99.90
35111;DHT22;21290;50.158;8.658;2023-04-15T03:19:56;4.60;99.90
35111;DHT22;21290;50.158;8.658;2023-04-15T03:22:23;4.60;99.90
35111;DHT22;21290;50.158;8.658;2023-04-15T03:24:50;4.60;99.90
35111;DHT22;21290;50.158;8.658;2023-04-15T03:27:17;4.60;99.90
35111;DHT22;21290;50.158;8.658;2023-04-15T03:29:43;4.60;99.90
35111;DHT22;21290;50.158;8.658;2023-04-15T03:32:10;4.50;99.90
35111;DHT22;21290;50.158;8.658;2023-04-15T03:34:37;4.50;99.90
35111;DHT22;21290;50.158;8.658;2023-04-15T03:37:04;4.50;99.90
35111;DHT22;21290;50.158;8.658;2023-04-15T03:39:31;4.50;99.90
35111;DHT22;21290;50.158;8.658;2023-04-15T03:41:57;4.50;99.90
35111;DHT22;21290;50.158;8.658;2023-04-15T03:44:27;4.50;99.90
35111;DHT22;21290;50.158;8.658;2023-04-15T03:46:54;4.40;99.90
35111;DHT22;21290;50.158;8.658;2023-04-15T03:49:21;4.40;99.90
35111;DHT22;21290;50.158;8.658;2023-04-15T03:51:48;4.50;99.90
35111;DHT22;21290;50.158;8.658;2023-04-15T03:54:15;4.50;99.90
35111;DHT22;21290;50.158;8.658;2023-04-15T03:56:41;4.40;99.90
35111;DHT22;21290;50.158;8.658;2023-04-15T03:59:08;4.40;99.90
35111;DHT22;21290;50.158;8.658;2023-04-15T04:01:35;4.40;99.90
35111;DHT22;21290;50.158;8.658;2023-04-15T04:04:01;4.40;99.90
35111;DHT22;21290;50.158;8.658;2023-04-15T04:06:28;4.40;99.90
35111;DHT22;21290;50.158;8.658;2023-04-15T04:08:55;4.40;99.90
35111;DHT22;21290;50.158;8.658;2023-04-15T04:11:22;4.40;99.90
35111;DHT22;21290;50.158;8.658;2023-04-15T04:13:48;4.40;99.90
35111;DHT22;21290;50.158;8.658;2023-04-15T04:16:15;4.50;99.90
35111;DHT22;21290;50.158;8.658;2023-04-15T04:18:41;4.50;99.90
35111;DHT22;21290;50.158;8.658;2023-04-15T04:21:08;4.50;99.90
35111;DHT22;21290;50.158;8.658;2023-04-15T04:23:35;4.50;99.90
35111;DHT22;21290;50.158;8.658;2023-04-15T04:26:01;4.50;99.90
35111;DHT22;21290;50.158;8.658;2023-04-15T04:28:28;4.50;99.90
35111;DHT22;21290;50.158;8.658;2023-04-15T04:30:55;4.50;99.90
35111;DHT22;21290;50.158;8.658;2023-04-15T04:33:21;4.50;99.90
35111;DHT22;21290;50.158;8.658;2023-04-15T04:35:48;4.50;99.90
35111;DHT22;21290;50.158;8.658;2023-04-15T04:38:15;4.60;99.90
35111;DHT22;21290;50.158;8.658;2023-04-15T04:40:41;4.60;99.90
35111;DHT22;21290;50.158;8.658;2023-04-15T04:43:08;4.60;99.90
35111;DHT22;21290;50.158;8.658;2023-04-15T04:45:35;4.60;99.90
35111;DHT22;21290;50.158;8.658;2023-04-15T04:48:02;4.70;99.90
35111;DHT22;21290;50.158;8.658;2023-04-15T04:50:33;4.60;99.90
35111;DHT22;21290;50.158;8.658;2023-04-15T04:53:00;4.70;99.90
35111;DHT22;21290;50.158;8.658;2023-04-15T04:55:27;4.70;99.90
35111;DHT22;21290;50.158;8.658;2023-04-15T04:57:54;4.70;99.90
35111;DHT22;21290;50.158;8.658;2023-04-15T05:00:21;4.70;99.90
35111;DHT22;21290;50.158;8.658;2023-04-15T05:02:48;4.70;99.90
35111;DHT22;21290;50.158;8.658;2023-04-15T05:05:15;4.80;99.90
35111;DHT22;21290;50.158;8.658;2023-04-15T05:07:41;4.70;99.90
35111;DHT22;21290;50.158;8.658;2023-04-15T05:10:08;4.80;99.90
35111;DHT22;21290;50.158;8.658;2023-04-15T05:12:35;4.90;99.90
35111;DHT22;21290;50.158;8.658;2023-04-15T05:15:05;4.90;99.90
35111;DHT22;21290;50.158;8.658;2023-04-15T05:17:31;5.00;99.90
35111;DHT22;21290;50.158;8.658;2023-04-15T05:20:01;5.00;99.90
35111;DHT22;21290;50.158;8.658;2023-04-15T05:22:28;5.10;99.90
35111;DHT22;21290;50.158;8.658;2023-04-15T05:24:54;5.20;99.90
35111;DHT22;21290;50.158;8.658;2023-04-15T05:27:21;5.30;99.90
35111;DHT22;21290;50.158;8.658;2023-04-15T05:29:49;5.40;99.90
35111;DHT22;21290;50.158;8.658;2023-04-15T05:32:15;5.40;99.90
35111;DHT22;21290;50.158;8.658;2023-04-15T05:34:42;5.50;99.90
35111;DHT22;21290;50.158;8.658;2023-04-15T05:37:09;5.60;99.90
35111;DHT22;21290;50.158;8.658;2023-04-15T05:39:35;5.70;99.90
35111;DHT22;21290;50.158;8.658;2023-04-15T05:42:02;5.80;99.90
35111;DHT22;21290;50.158;8.658;2023-04-15T05:44:29;5.80;99.90
35111;DHT22;21290;50.158;8.658;2023-04-15T05:46:55;5.90;99.90
35111;DHT22;21290;50.158;8.658;2023-04-15T05:49:22;5.90;99.90
35111;DHT22;21290;50.158;8.658;2023-04-15T05:51:49;6.00;99.90
35111;DHT22;21290;50.158;8.658;2023-04-15T05:54:16;6.10;99.90
35111;DHT22;21290;50.158;8.658;2023-04-15T05:56:45;6.20;99.90
35111;DHT22;21290;50.158;8.658;2023-04-15T05:59:12;6.30;99.90
35111;DHT22;21290;50.158;8.658;2023-04-15T06:01:38;6.40;99.90
35111;DHT22;21290;50.158;8.658;2023-04-15T06:04:05;6.50;99.90
35111;DHT22;21290;50.158;8.658;2023-04-15T06:06:32;6.60;99.90
35111;DHT22;21290;50.158;8.658;2023-04-15T06:08:59;6.70;99.90
35111;DHT22;21290;50.158;8.658;2023-04-15T06:11:29;6.80;99.90
35111;DHT22;21290;50.158;8.658;2023-04-15T06:13:56;6.90;99.90
35111;DHT22;21290;50.158;8.658;2023-04-15T06:16:22;7.00;99.90
35111;DHT22;21290;50.158;8.658;2023-04-15T06:18:49;7.10;99.90
35111;DHT22;21290;50.158;8.658;2023-04-15T06:21:16;7.20;99.90
35111;DHT22;21290;50.158;8.658;2023-04-15T06:23:42;7.40;99.90
35111;DHT22;21290;50.158;8.658;2023-04-15T06:26:09;7.50;99.90
35111;DHT22;21290;50.158;8.658;2023-04-15T06:28:36;7.70;99.90
35111;DHT22;21290;50.158;8.658;2023-04-15T06:31:02;7.80;99.90
35111;DHT22;21290;50.158;8.658;2023-04-15T06:33:30;7.90;99.90
35111;DHT22;21290;50.158;8.658;2023-04-15T06:35:57;8.00;99.90
35111;DHT22;21290;50.158;8.658;2023-04-15T06:38:23;8.10;99.90
35111;DHT22;21290;50.158;8.658;2023-04-15T06:40:50;8.30;99.90
35111;DHT22;21290;50.158;8.658;2023-04-15T06:43:16;8.40;99.90
35111;DHT22;21290;50.158;8.658;2023-04-15T06:45:43;8.60;99.90
35111;DHT22;21290;50.158;8.658;2023-04-15T06:48:10;8.80;99.90
35111;DHT22;21290;50.158;8.658;2023-04-15T06:50:37;8.90;99.90
35111;DHT22;21290;50.158;8.658;2023-04-15T06:53:04;9.00;99.90
35111;DHT22;21290;50.158;8.658;2023-04-15T06:55:31;9.10;99.90
35111;DHT22;21290;50.158;8.658;2023-04-15T06:57:57;9.10;99.90
35111;DHT22;21290;50.158;8.658;2023-04-15T07:00:24;9.30;99.90
35111;DHT22;21290;50.158;8.658;2023-04-15T07:02:50;9.40;99.90
35111;DHT22;21290;50.158;8.658;2023-04-15T07:05:18;9.60;99.90
35111;DHT22;21290;50.158;8.658;2023-04-15T07:07:45;9.80;99.90
35111;DHT22;21290;50.158;8.658;2023-04-15T07:10:12;10.00;99.90
35111;DHT22;21290;50.158;8.658;2023-04-15T07:12:40;10.10;99.90
35111;DHT22;21290;50.158;8.658;2023-04-15T07:15:07;10.30;99.90
35111;DHT22;21290;50.158;8.658;2023-04-15T07:17:33;10.40;99.90
35111;DHT22;21290;50.158;8.658;2023-04-15T07:20:00;10.70;99.90
35111;DHT22;21290;50.158;8.658;2023-04-15T07:22:27;11.00;99.90
35111;DHT22;21290;50.158;8.658;2023-04-15T07:24:53;11.10;99.90
35111;DHT22;21290;50.158;8.658;2023-04-15T07:27:20;11.40;99.90
35111;DHT22;21290;50.158;8.658;2023-04-15T07:29:47;11.50;99.90
35111;DHT22;21290;50.158;8.658;2023-04-15T07:32:14;11.70;99.90
35111;DHT22;21290;50.158;8.658;2023-04-15T07:34:40;11.80;99.90
35111;DHT22;21290;50.158;8.658;2023-04-15T07:37:07;11.90;99.90
35111;DHT22;21290;50.158;8.658;2023-04-15T07:39:34;11.90;99.90
35111;DHT22;21290;50.158;8.658;2023-04-15T07:42:00;11.90;99.90
35111;DHT22;21290;50.158;8.658;2023-04-15T07:44:27;11.80;99.90
35111;DHT22;21290;50.158;8.658;2023-04-15T07:46:55;11.80;99.90
35111;DHT22;21290;50.158;8.658;2023-04-15T07:49:21;11.90;99.90
35111;DHT22;21290;50.158;8.658;2023-04-15T07:51:48;11.90;99.90
35111;DHT22;21290;50.158;8.658;2023-04-15T07:54:15;11.90;99.90
35111;DHT22;21290;50.158;8.658;2023-04-15T07:56:42;11.90;99.90
35111;DHT22;21290;50.158;8.658;2023-04-15T07:59:08;11.90;99.90
35111;DHT22;21290;50.158;8.658;2023-04-15T08:01:35;12.10;99.90
35111;DHT22;21290;50.158;8.658;2023-04-15T08:04:03;12.30;99.90
35111;DHT22;21290;50.158;8.658;2023-04-15T08:06:30;12.40;99.90
35111;DHT22;21290;50.158;8.658;2023-04-15T08:08:56;12.40;99.90
35111;DHT22;21290;50.158;8.658;2023-04-15T08:11:23;12.40;99.90
35111;DHT22;21290;50.158;8.658;2023-04-15T08:13:51;12.30;99.90
35111;DHT22;21290;50.158;8.658;2023-04-15T08:16:25;12.40;99.90
35111;DHT22;21290;50.158;8.658;2023-04-15T08:18:55;12.50;99.90
35111;DHT22;21290;50.158;8.658;2023-04-15T08:21:22;12.50;99.90
35111;DHT22;21290;50.158;8.658;2023-04-15T08:23:50;12.60;99.90
35111;DHT22;21290;50.158;8.658;2023-04-15T08:26:18;12.80;99.90
35111;DHT22;21290;50.158;8.658;2023-04-15T08:28:45;12.80;99.90
35111;DHT22;21290;50.158;8.658;2023-04-15T08:31:13;13.10;99.90
35111;DHT22;21290;50.158;8.658;2023-04-15T08:33:40;13.50;99.90
35111;DHT22;21290;50.158;8.658;2023-04-15T08:36:07;13.70;99.90
35111;DHT22;21290;50.158;8.658;2023-04-15T08:38:34;14.00;99.90
35111;DHT22;21290;50.158;8.658;2023-04-15T08:41:05;14.20;99.90
35111;DHT22;21290;50.158;8.658;2023-04-15T08:43:34;14.30;99.90
35111;DHT22;21290;50.158;8.658;2023-04-15T08:46:01;14.60;99.90
35111;DHT22;21290;50.158;8.658;2023-04-15T08:48:32;14.90;99.90
35111;DHT22;21290;50.158;8.658;2023-04-15T08:50:58;15.60;99.90
35111;DHT22;21290;50.158;8.658;2023-04-15T08:53:28;15.80;99.90
35111;DHT22;21290;50.158;8.658;2023-04-15T08:55:56;16.00;99.90
35111;DHT22;21290;50.158;8.658;2023-04-15T08:58:23;16.20;99.90
35111;DHT22;21290;50.158;8.658;2023-04-15T09:00:50;16.30;99.90
35111;DHT22;21290;50.158;8.658;2023-04-15T09:03:17;16.10;99.90
35111;DHT22;21290;50.158;8.658;2023-04-15T09:05:44;16.20;98.90
35111;DHT22;21290;50.158;8.658;2023-04-15T09:08:12;16.30;99.60
35111;DHT22;21290;50.158;8.658;2023-04-15T09:10:39;16.50;98.90
35111;DHT22;21290;50.158;8.658;2023-04-15T09:13:05;16.60;97.50
35111;DHT22;21290;50.158;8.658;2023-04-15T09:15:32;16.50;98.40
35111;DHT22;21290;50.158;8.658;2023-04-15T09:17:59;16.70;97.80
35111;DHT22;21290;50.158;8.658;2023-04-15T09:20:25;16.80;97.90
35111;DHT22;21290;50.158;8.658;2023-04-15T09:22:52;16.80;97.30
35111;DHT22;21290;50.158;8.658;2023-04-15T09:28:01;16.90;96.70
35111;DHT22;21290;50.158;8.658;2023-04-15T09:30:28;16.90;96.60
35111;DHT22;21290;50.158;8.658;2023-04-15T09:33:00;16.50;96.90
35111;DHT22;21290;50.158;8.658;2023-04-15T09:35:34;16.30;96.80
35111;DHT22;21290;50.158;8.658;2023-04-15T09:38:06;15.90;97.20
35111;DHT22;21290;50.158;8.658;2023-04-15T09:40:40;15.60;98.20
35111;DHT22;21290;50.158;8.658;2023-04-15T09:43:08;15.30;98.40
35111;DHT22;21290;50.158;8.658;2023-04-15T09:45:38;15.10;99.00
35111;DHT22;21290;50.158;8.658;2023-04-15T09:48:16;14.80;99.30
35111;DHT22;21290;50.158;8.658;2023-04-15T09:50:43;14.50;99.60
35111;DHT22;21290;50.158;8.658;2023-04-15T09:53:14;14.40;99.60
35111;DHT22;21290;50.158;8.658;2023-04-15T09:55:50;14.10;99.50
35111;DHT22;21290;50.158;8.658;2023-04-15T09:58:29;14.00;99.90
35111;DHT22;21290;50.158;8.658;2023-04-15T10:00:58;14.00;99.90
35111;DHT22;21290;50.158;8.658;2023-04-15T10:03:29;13.80;99.90
35111;DHT22;21290;50.158;8.658;2023-04-15T10:05:59;13.80;99.90
35111;DHT22;21290;50.158;8.658;2023-04-15T10:08:30;13.80;99.90
35111;DHT22;21290;50.158;8.658;2023-04-15T10:10:58;13.60;99.90
35111;DHT22;21290;50.158;8.658;2023-04-15T10:13:28;13.60;99.90
35111;DHT22;21290;50.158;8.658;2023-04-15T10:18:28;13.50;99.90
35111;DHT22;21290;50.158;8.658;2023-04-15T10:20:59;13.60;99.90
35111;DHT22;21290;50.158;8.658;2023-04-15T10:23:26;13.70;99.90
35111;DHT22;21290;50.158;8.658;2023-04-15T10:25:54;13.90;99.90
35111;DHT22;21290;50.158;8.658;2023-04-15T10:28:21;13.90;99.90
35111;DHT22;21290;50.158;8.658;2023-04-15T10:30:48;13.90;99.90
35111;DHT22;21290;50.158;8.658;2023-04-15T10:33:21;14.10;99.90
35111;DHT22;21290;50.158;8.658;2023-04-15T10:35:49;14.30;99.90
35111;DHT22;21290;50.158;8.658;2023-04-15T10:38:31;14.30;99.90
35111;DHT22;21290;50.158;8.658;2023-04-15T10:41:17;14.40;99.90
35111;DHT22;21290;50.158;8.658;2023-04-15T10:44:03;14.60;99.90
35111;DHT22;21290;50.158;8.658;2023-04-15T10:46:39;14.90;99.90
35111;DHT22;21290;50.158;8.658;2023-04-15T10:49:14;14.90;99.90
35111;DHT22;21290;50.158;8.658;2023-04-15T10:51:43;14.90;99.90
35111;DHT22;21290;50.158;8.658;2023-04-15T10:54:15;14.80;99.90
35111;DHT22;21290;50.158;8.658;2023-04-15T10:56:44;14.70;99.90
35111;DHT22;21290;50.158;8.658;2023-04-15T10:59:16;14.60;99.90
35111;DHT22;21290;50.158;8.658;2023-04-15T11:01:50;14.40;99.90
35111;DHT22;21290;50.158;8.658;2023-04-15T11:04:58;14.30;99.90
35111;DHT22;21290;50.158;8.658;2023-04-15T11:07:36;14.30;99.90
35111;DHT22;21290;50.158;8.658;2023-04-15T11:12:39;14.20;99.90
35111;DHT22;21290;50.158;8.658;2023-04-15T11:15:28;14.30;99.90
35111;DHT22;21290;50.158;8.658;2023-04-15T11:17:56;14.50;99.90
35111;DHT22;21290;50.158;8.658;2023-04-15T11:20:23;14.80;99.90
35111;DHT22;21290;50.158;8.658;2023-04-15T11:22:52;15.20;99.90
35111;DHT22;21290;50.158;8.658;2023-04-15T11:25:39;15.40;99.90
35111;DHT22;21290;50.158;8.658;2023-04-15T11:28:05;15.50;99.90
35111;DHT22;21290;50.158;8.658;2023-04-15T11:30:34;15.50;99.90
35111;DHT22;21290;50.158;8.658;2023-04-15T11:33:03;15.30;99.90
35111;DHT22;21290;50.158;8.658;2023-04-15T11:35:30;15.10;99.90
35111;DHT22;21290;50.158;8.658;2023-04-15T11:37:57;14.90;99.90
35111;DHT22;21290;50.158;8.658;2023-04-15T11:40:25;14.60;99.90
35111;DHT22;21290;50.158;8.658;2023-04-15T11:43:08;14.50;99.90
35111;DHT22;21290;50.158;8.658;2023-04-15T11:45:37;14.30;99.90
35111;DHT22;21290;50.158;8.658;2023-04-15T11:48:05;14.00;99.90
35111;DHT22;21290;50.158;8.658;2023-04-15T11:50:33;13.90;99.90
35111;DHT22;21290;50.158;8.658;2023-04-15T11:53:04;13.70;99.90
35111;DHT22;21290;50.158;8.658;2023-04-15T11:55:43;13.50;99.90
35111;DHT22;21290;50.158;8.658;2023-04-15T11:58:20;13.40;99.90
35111;DHT22;21290;50.158;8.658;2023-04-15T12:00:56;13.20;99.90
35111;DHT22;21290;50.158;8.658;2023-04-15T12:03:30;13.20;99.90
35111;DHT22;21290;50.158;8.658;2023-04-15T12:06:09;13.00;99.90
35111;DHT22;21290;50.158;8.658;2023-04-15T12:08:50;12.90;99.90
35111;DHT22;21290;50.158;8.658;2023-04-15T12:11:17;13.00;99.90
35111;DHT22;21290;50.158;8.658;2023-04-15T12:13:48;13.00;99.90
35111;DHT22;21290;50.158;8.658;2023-04-15T12:16:18;13.10;99.90
35111;DHT22;21290;50.158;8.658;2023-04-15T12:18:46;13.10;99.90
35111;DHT22;21290;50.158;8.658;2023-04-15T12:21:13;13.00;99.90
35111;DHT22;21290;50.158;8.658;2023-04-15T12:23:47;13.00;99.90
35111;DHT22;21290;50.158;8.658;2023-04-15T12:26:15;13.00;99.90
35111;DHT22;21290;50.158;8.658;2023-04-15T12:28:43;13.10;99.90
35111;DHT22;21290;50.158;8.658;2023-04-15T12:31:10;13.10;99.90
35111;DHT22;21290;50.158;8.658;2023-04-15T12:33:38;13.10;99.90
35111;DHT22;21290;50.158;8.658;2023-04-15T12:36:05;13.00;99.90
35111;DHT22;21290;50.158;8.658;2023-04-15T12:38:32;12.80;99.90
35111;DHT22;21290;50.158;8.658;2023-04-15T12:40:58;12.70;99.90
35111;DHT22;21290;50.158;8.658;2023-04-15T12:43:25;12.50;99.90
35111;DHT22;21290;50.158;8.658;2023-04-15T12:45:52;12.30;99.90
35111;DHT22;21290;50.158;8.658;2023-04-15T12:48:19;12.20;99.90
35111;DHT22;21290;50.158;8.658;2023-04-15T12:50:45;12.00;99.90
35111;DHT22;21290;50.158;8.658;2023-04-15T12:53:12;11.90;99.90
35111;DHT22;21290;50.158;8.658;2023-04-15T12:55:39;11.90;99.90
35111;DHT22;21290;50.158;8.658;2023-04-15T12:58:05;11.70;99.90
35111;DHT22;21290;50.158;8.658;2023-04-15T13:00:35;11.60;99.90
35111;DHT22;21290;50.158;8.658;2023-04-15T13:03:02;11.50;99.90
35111;DHT22;21290;50.158;8.658;2023-04-15T13:05:32;11.30;99.90
35111;DHT22;21290;50.158;8.658;2023-04-15T13:07:58;11.30;99.90
35111;DHT22;21290;50.158;8.658;2023-04-15T13:10:25;11.20;99.90
35111;DHT22;21290;50.158;8.658;2023-04-15T13:12:51;11.30;99.90
35111;DHT22;21290;50.158;8.658;2023-04-15T13:15:19;11.20;99.90
35111;DHT22;21290;50.158;8.658;2023-04-15T13:17:48;11.20;99.90
35111;DHT22;21290;50.158;8.658;2023-04-15T13:20:15;11.20;99.90
35111;DHT22;21290;50.158;8.658;2023-04-15T13:22:42;11.20;99.90
35111;DHT22;21290;50.158;8.658;2023-04-15T13:25:09;11.10;99.90
35111;DHT22;21290;50.158;8.658;2023-04-15T13:27:36;11.10;99.90
35111;DHT22;21290;50.158;8.658;2023-04-15T13:30:03;11.10;99.90
35111;DHT22;21290;50.158;8.658;2023-04-15T13:32:30;11.10;99.90
35111;DHT22;21290;50.158;8.658;2023-04-15T13:34:57;11.20;99.90
35111;DHT22;21290;50.158;8.658;2023-04-15T13:37:28;11.10;99.90
35111;DHT22;21290;50.158;8.658;2023-04-15T13:39:56;11.10;99.90
35111;DHT22;21290;50.158;8.658;2023-04-15T13:42:23;11.10;99.90
35111;DHT22;21290;50.158;8.658;2023-04-15T13:44:50;11.10;99.90
35111;DHT22;21290;50.158;8.658;2023-04-15T13:47:18;11.10;99.90
35111;DHT22;21290;50.158;8.658;2023-04-15T13:49:45;11.10;99.90
35111;DHT22;21290;50.158;8.658;2023-04-15T13:52:12;11.10;99.90
35111;DHT22;21290;50.158;8.658;2023-04-15T13:54:38;11.10;99.90
35111;DHT22;21290;50.158;8.658;2023-04-15T13:57:05;11.00;99.90
35111;DHT22;21290;50.158;8.658;2023-04-15T13:59:33;11.10;99.90
35111;DHT22;21290;50.158;8.658;2023-04-15T14:02:00;11.10;99.90
35111;DHT22;21290;50.158;8.658;2023-04-15T14:04:27;11.10;99.90
35111;DHT22;21290;50.158;8.658;2023-04-15T14:06:54;11.10;99.90
35111;DHT22;21290;50.158;8.658;2023-04-15T14:09:21;11.00;99.90
35111;DHT22;21290;50.158;8.658;2023-04-15T14:11:52;11.00;99.90
35111;DHT22;21290;50.158;8.658;2023-04-15T14:14:18;11.00;99.90
35111;DHT22;21290;50.158;8.658;2023-04-15T14:16:45;11.00;99.90
35111;DHT22;21290;50.158;8.658;2023-04-15T14:19:12;11.00;99.90
35111;DHT22;21290;50.158;8.658;2023-04-15T14:21:38;11.00;99.90
35111;DHT22;21290;50.158;8.658;2023-04-15T14:24:05;11.10;99.90
35111;DHT22;21290;50.158;8.658;2023-04-15T14:26:31;11.10;99.90
35111;DHT22;21290;50.158;8.658;2023-04-15T14:28:58;11.10;99.90
35111;DHT22;21290;50.158;8.658;2023-04-15T14:31:25;11.00;99.90
35111;DHT22;21290;50.158;8.658;2023-04-15T14:33:51;11.00;99.90
35111;DHT22;21290;50.158;8.658;2023-04-15T14:36:18;10.90;99.90
35111;DHT22;21290;50.158;8.658;2023-04-15T14:38:45;10.90;99.90
35111;DHT22;21290;50.158;8.658;2023-04-15T14:41:14;10.70;99.90
35111;DHT22;21290;50.158;8.658;2023-04-15T14:43:41;10.70;99.90
35111;DHT22;21290;50.158;8.658;2023-04-15T14:46:07;10.60;99.90
35111;DHT22;21290;50.158;8.658;2023-04-15T14:48:36;10.60;99.90
35111;DHT22;21290;50.158;8.658;2023-04-15T14:51:02;10.60;99.90
35111;DHT22;21290;50.158;8.658;2023-04-15T14:53:29;10.60;99.90
35111;DHT22;21290;50.158;8.658;2023-04-15T14:55:56;10.60;99.90
35111;DHT22;21290;50.158;8.658;2023-04-15T14:58:22;10.60;99.90
35111;DHT22;21290;50.158;8.658;2023-04-15T15:00:49;10.50;99.90
35111;DHT22;21290;50.158;8.658;2023-04-15T15:03:16;10.40;99.90
35111;DHT22;21290;50.158;8.658;2023-04-15T15:05:44;10.30;99.90
35111;DHT22;21290;50.158;8.658;2023-04-15T15:08:12;10.30;99.90
35111;DHT22;21290;50.158;8.658;2023-04-15T15:10:39;10.30;99.90
35111;DHT22;21290;50.158;8.658;2023-04-15T15:13:15;10.30;99.90
35111;DHT22;21290;50.158;8.658;2023-04-15T15:15:42;10.20;99.90
35111;DHT22;21290;50.158;8.658;2023-04-15T15:18:09;10.30;99.90
35111;DHT22;21290;50.158;8.658;2023-04-15T15:20:36;10.30;99.90
35111;DHT22;21290;50.158;8.658;2023-04-15T15:23:02;10.20;99.90
35111;DHT22;21290;50.158;8.658;2023-04-15T15:25:30;10.20;99.90
35111;DHT22;21290;50.158;8.658;2023-04-15T15:27:57;10.20;99.90
35111;DHT22;21290;50.158;8.658;2023-04-15T15:30:23;10.10;99.90
35111;DHT22;21290;50.158;8.658;2023-04-15T15:32:50;10.10;99.90
35111;DHT22;21290;50.158;8.658;2023-04-15T15:35:17;10.00;99.90
35111;DHT22;21290;50.158;8.658;2023-04-15T15:37:44;10.00;99.90
35111;DHT22;21290;50.158;8.658;2023-04-15T15:40:11;10.00;99.90
35111;DHT22;21290;50.158;8.658;2023-04-15T15:42:38;10.00;99.90
35111;DHT22;21290;50.158;8.658;2023-04-15T15:45:05;10.10;99.90
35111;DHT22;21290;50.158;8.658;2023-04-15T15:47:31;10.10;99.90
35111;DHT22;21290;50.158;8.658;2023-04-15T15:49:59;10.10;99.90